createdAt,value
2023-05-11T00:01:49.858Z,0.90
2023-05-11T00:04:18.627Z,0.93
2023-05-11T00:06:46.833Z,0.90
2023-05-11T00:09:15.399Z,0.83
2023-05-11T00:11:43.586Z,0.87
2023-05-11T00:14:11.546Z,1.20
2023-05-11T00:16:39.616Z,1.00
2023-05-11T00:19:08.038Z,1.00
2023-05-11T00:21:35.861Z,0.70
2023-05-11T00:24:03.691Z,1.07
2023-05-11T00:26:32.018Z,0.90
2023-05-11T00:29:00.059Z,1.00
2023-05-11T00:31:30.167Z,0.90
2023-05-11T00:33:58.584Z,0.90
2023-05-11T00:36:28.714Z,0.90
2023-05-11T00:38:56.678Z,1.30
2023-05-11T00:41:24.958Z,1.00
2023-05-11T00:43:53.430Z,1.00
2023-05-11T00:46:22.210Z,1.30
2023-05-11T00:48:50.285Z,1.10
2023-05-11T00:51:18.950Z,1.23
2023-05-11T00:53:48.077Z,1.20
2023-05-11T00:56:16.130Z,1.07
2023-05-11T00:58:44.082Z,2.40
2023-05-11T01:01:12.403Z,1.40
2023-05-11T01:03:40.439Z,1.20
2023-05-11T01:06:14.759Z,1.23
2023-05-11T01:09:09.381Z,1.10
2023-05-11T01:11:43.002Z,1.17
2023-05-11T01:14:11.361Z,1.10
2023-05-11T01:16:41.581Z,1.10
2023-05-11T01:19:14.046Z,3.53
2023-05-11T01:21:42.409Z,1.97
2023-05-11T01:24:29.140Z,1.90
2023-05-11T01:27:16.550Z,3.30
2023-05-11T01:29:45.649Z,2.23
2023-05-11T01:32:27.842Z,1.50
2023-05-11T01:35:15.984Z,4.20
2023-05-11T01:37:47.830Z,4.47
2023-05-11T01:40:18.634Z,2.30
2023-05-11T01:42:49.507Z,1.60
2023-05-11T01:45:18.322Z,1.30
2023-05-11T01:47:46.801Z,1.70
2023-05-11T01:50:16.842Z,1.80
2023-05-11T01:52:46.748Z,2.33
2023-05-11T01:55:16.933Z,1.67
2023-05-11T01:57:45.206Z,1.30
2023-05-11T02:00:13.493Z,1.67
2023-05-11T02:02:42.918Z,1.30
2023-05-11T02:05:12.598Z,1.13
2023-05-11T02:07:45.079Z,2.50
2023-05-11T02:10:13.889Z,1.53
2023-05-11T02:12:44.242Z,3.03
2023-05-11T02:15:12.567Z,1.30
2023-05-11T02:17:42.153Z,1.80
2023-05-11T02:20:12.056Z,7.90
2023-05-11T02:22:40.281Z,11.67
2023-05-11T02:25:09.238Z,2.43
2023-05-11T02:27:38.376Z,1.57
2023-05-11T02:30:09.278Z,1.40
2023-05-11T02:32:42.094Z,1.13
2023-05-11T02:35:18.111Z,1.63
2023-05-11T02:37:48.069Z,6.13
2023-05-11T02:40:21.255Z,2.87
2023-05-11T02:42:52.286Z,1.50
2023-05-11T02:45:21.273Z,1.10
2023-05-11T02:47:53.955Z,1.20
2023-05-11T02:50:25.206Z,1.30
2023-05-11T02:52:56.721Z,1.30
2023-05-11T02:55:25.040Z,1.40
2023-05-11T02:57:53.631Z,1.33
2023-05-11T03:00:22.357Z,1.40
2023-05-11T03:02:51.788Z,1.30
2023-05-11T03:08:05.830Z,9.77
2023-05-11T03:10:34.947Z,5.00
2023-05-11T03:13:03.234Z,3.27
2023-05-11T03:15:31.908Z,2.33
2023-05-11T03:18:00.943Z,1.63
2023-05-11T03:20:29.082Z,2.00
2023-05-11T03:22:57.364Z,1.50
2023-05-11T03:25:26.474Z,1.90
2023-05-11T03:27:55.081Z,2.43
2023-05-11T03:30:23.121Z,4.37
2023-05-11T03:32:51.534Z,2.00
2023-05-11T03:35:19.441Z,1.63
2023-05-11T03:37:48.349Z,1.87
2023-05-11T03:40:16.829Z,11.07
2023-05-11T03:42:46.122Z,2.93
2023-05-11T03:45:15.944Z,2.00
2023-05-11T03:47:45.091Z,1.70
2023-05-11T03:50:14.138Z,1.63
2023-05-11T03:52:42.119Z,1.70
2023-05-11T03:55:10.883Z,1.50
2023-05-11T03:57:39.745Z,2.70
2023-05-11T04:00:08.611Z,1.90
2023-05-11T04:02:36.941Z,1.70
2023-05-11T04:05:12.789Z,2.00
2023-05-11T04:07:41.194Z,3.57
2023-05-11T04:10:10.836Z,1.50
2023-05-11T04:12:46.641Z,1.50
2023-05-11T04:15:24.211Z,1.50
2023-05-11T04:20:44.554Z,1.60
2023-05-11T04:23:19.044Z,1.70
2023-05-11T04:25:46.514Z,1.37
2023-05-11T04:28:13.866Z,2.30
2023-05-11T04:30:41.187Z,2.00
2023-05-11T04:33:08.614Z,1.77
2023-05-11T04:35:39.859Z,1.53
2023-05-11T04:38:07.688Z,1.80
2023-05-11T04:40:36.764Z,1.60
2023-05-11T04:43:04.050Z,1.53
2023-05-11T04:45:31.319Z,1.53
2023-05-11T04:47:59.251Z,1.80
2023-05-11T04:50:26.657Z,5.53
2023-05-11T04:52:54.496Z,9.23
2023-05-11T04:55:22.871Z,2.00
2023-05-11T04:57:50.270Z,1.60
2023-05-11T05:00:18.102Z,1.70
2023-05-11T05:02:45.684Z,4.17
2023-05-11T05:05:13.072Z,5.77
2023-05-11T05:07:40.419Z,3.20
2023-05-11T05:10:09.259Z,4.33
2023-05-11T05:12:37.283Z,2.53
2023-05-11T05:15:05.848Z,2.40
2023-05-11T05:17:33.182Z,2.30
2023-05-11T05:20:00.728Z,1.87
2023-05-11T05:22:28.324Z,2.50
2023-05-11T05:24:55.722Z,2.40
2023-05-11T05:27:23.131Z,2.40
2023-05-11T05:29:50.436Z,2.77
2023-05-11T05:32:17.934Z,3.83
2023-05-11T05:34:47.323Z,2.57
2023-05-11T05:37:14.645Z,10.77
2023-05-11T05:39:41.967Z,3.07
2023-05-11T05:42:09.257Z,2.47
2023-05-11T05:44:36.666Z,4.57
2023-05-11T05:47:03.972Z,4.00
2023-05-11T05:49:31.375Z,3.90
2023-05-11T05:51:58.634Z,9.73
2023-05-11T05:54:26.023Z,3.47
2023-05-11T05:56:53.576Z,1.83
2023-05-11T05:59:23.462Z,2.50
2023-05-11T06:01:51.862Z,2.53
2023-05-11T06:04:19.784Z,2.00
2023-05-11T06:06:47.539Z,1.80
2023-05-11T06:09:16.110Z,1.90
2023-05-11T06:11:43.419Z,1.70
2023-05-11T06:14:13.580Z,3.00
2023-05-11T06:16:41.034Z,5.00
2023-05-11T06:19:09.400Z,2.70
2023-05-11T06:21:37.285Z,2.00
2023-05-11T06:24:04.885Z,2.90
2023-05-11T06:26:32.366Z,1.90
2023-05-11T06:28:59.668Z,2.40
2023-05-11T06:31:27.602Z,2.07
2023-05-11T06:33:54.925Z,2.60
2023-05-11T06:36:22.335Z,2.40
2023-05-11T06:38:49.736Z,2.73
2023-05-11T06:41:17.074Z,2.00
2023-05-11T06:43:44.468Z,2.17
2023-05-11T06:46:16.469Z,5.70
2023-05-11T06:48:43.774Z,2.30
2023-05-11T06:51:14.379Z,1.73
2023-05-11T06:53:41.796Z,2.23
2023-05-11T06:56:09.508Z,2.27
2023-05-11T06:58:37.358Z,2.20
2023-05-11T07:01:09.373Z,2.00
2023-05-11T07:03:37.217Z,1.47
2023-05-11T07:06:04.623Z,2.00
2023-05-11T07:08:32.081Z,2.80
2023-05-11T07:10:59.541Z,1.73
2023-05-11T07:13:26.808Z,2.57
2023-05-11T07:15:57.329Z,1.53
2023-05-11T07:18:25.119Z,1.93
2023-05-11T07:20:52.545Z,1.80
2023-05-11T07:23:19.816Z,3.03
2023-05-11T07:25:47.449Z,1.83
2023-05-11T07:28:14.769Z,1.93
2023-05-11T07:30:42.665Z,1.80
2023-05-11T07:33:10.136Z,1.90
2023-05-11T07:35:37.686Z,1.40
2023-05-11T07:38:08.057Z,2.50
2023-05-11T07:40:36.023Z,2.17
2023-05-11T07:43:03.326Z,2.80
2023-05-11T07:45:30.613Z,9.87
2023-05-11T07:47:57.999Z,3.70
2023-05-11T07:50:25.942Z,4.67
2023-05-11T07:52:53.747Z,2.00
2023-05-11T07:55:25.074Z,1.67
2023-05-11T07:57:53.038Z,1.60
2023-05-11T08:00:21.200Z,3.90
2023-05-11T08:02:49.131Z,1.60
2023-05-11T08:05:16.644Z,1.30
2023-05-11T08:07:44.165Z,1.50
2023-05-11T08:10:11.668Z,1.43
2023-05-11T08:12:39.393Z,1.63
2023-05-11T08:15:07.035Z,1.40
2023-05-11T08:17:36.620Z,1.50
2023-05-11T08:20:04.977Z,2.00
2023-05-11T08:22:32.254Z,1.60
2023-05-11T08:24:59.482Z,6.57
2023-05-11T08:27:26.855Z,12.00
2023-05-11T08:29:55.904Z,20.40
2023-05-11T08:32:24.153Z,2.30
2023-05-11T08:34:51.711Z,2.07
2023-05-11T08:37:19.687Z,5.80
2023-05-11T08:39:47.891Z,5.63
2023-05-11T08:42:18.522Z,3.73
2023-05-11T08:44:46.030Z,1.87
2023-05-11T08:49:44.459Z,1.90
2023-05-11T08:52:11.765Z,1.40
2023-05-11T08:54:41.899Z,1.60
2023-05-11T08:57:10.131Z,1.37
2023-05-11T08:59:38.262Z,3.40
2023-05-11T09:02:06.429Z,2.10
2023-05-11T09:04:34.218Z,2.80
2023-05-11T09:07:01.610Z,1.70
2023-05-11T09:09:29.041Z,2.43
2023-05-11T09:11:56.610Z,1.70
2023-05-11T09:14:27.361Z,1.73
2023-05-11T09:16:55.269Z,1.70
2023-05-11T09:19:22.832Z,1.50
2023-05-11T09:21:50.214Z,1.80
2023-05-11T09:24:17.730Z,1.67
2023-05-11T09:26:44.967Z,1.70
2023-05-11T09:29:12.347Z,1.80
2023-05-11T09:31:41.113Z,2.87
2023-05-11T09:34:12.926Z,2.27
2023-05-11T09:36:40.804Z,2.80
2023-05-11T09:39:08.574Z,2.07
2023-05-11T09:41:42.584Z,4.80
2023-05-11T09:44:10.967Z,2.10
2023-05-11T09:46:39.433Z,3.80
2023-05-11T09:49:07.473Z,1.60
2023-05-11T09:51:38.224Z,1.50
2023-05-11T09:54:19.140Z,1.47
2023-05-11T09:56:47.841Z,1.47
2023-05-11T09:59:36.908Z,1.33
2023-05-11T10:02:20.359Z,1.50
2023-05-11T10:04:51.723Z,1.37
2023-05-11T10:07:26.363Z,1.40
2023-05-11T10:09:57.738Z,1.30
2023-05-11T10:12:25.991Z,1.23
2023-05-11T10:14:55.171Z,2.30
2023-05-11T10:17:22.798Z,2.10
2023-05-11T10:19:50.893Z,1.50
2023-05-11T10:22:18.565Z,1.30
2023-05-11T10:24:46.736Z,1.60
2023-05-11T10:27:14.053Z,1.10
2023-05-11T10:29:43.101Z,1.30
2023-05-11T10:32:12.182Z,1.17
2023-05-11T10:37:55.038Z,1.20
2023-05-11T10:40:39.791Z,1.30
2023-05-11T10:43:24.413Z,1.10
2023-05-11T10:46:10.662Z,1.13
2023-05-11T10:48:39.448Z,1.00
2023-05-11T10:51:07.165Z,1.10
2023-05-11T10:53:53.576Z,1.27
2023-05-11T10:56:29.939Z,4.70
2023-05-11T10:59:09.629Z,2.60
2023-05-11T11:01:59.953Z,1.10
2023-05-11T11:04:43.642Z,1.00
2023-05-11T11:07:12.590Z,1.30
2023-05-11T11:10:00.805Z,0.90
2023-05-11T11:12:29.873Z,1.20
2023-05-11T11:15:07.667Z,1.00
2023-05-11T11:17:38.022Z,1.17
2023-05-11T11:20:11.035Z,1.00
2023-05-11T11:22:38.918Z,1.00
2023-05-11T11:25:09.307Z,1.00
2023-05-11T11:27:46.408Z,0.90
2023-05-11T11:30:26.797Z,2.30
2023-05-11T11:33:05.762Z,1.00
2023-05-11T11:35:43.024Z,1.10
2023-05-11T11:38:29.737Z,0.93
2023-05-11T11:40:57.549Z,1.00
2023-05-11T11:43:29.302Z,1.00
2023-05-11T11:46:08.292Z,0.90
2023-05-11T11:48:36.699Z,0.90
2023-05-11T11:51:04.867Z,1.20
2023-05-11T11:53:38.574Z,0.90
2023-05-11T11:58:51.143Z,0.90
2023-05-11T12:01:18.611Z,0.87
2023-05-11T12:03:48.466Z,1.00
2023-05-11T12:06:16.568Z,0.80
2023-05-11T12:08:44.258Z,0.90
2023-05-11T12:11:12.987Z,0.73
2023-05-11T12:13:43.113Z,1.30
2023-05-11T12:16:14.564Z,1.20
2023-05-11T12:18:44.238Z,0.90
2023-05-11T12:21:23.182Z,0.90
2023-05-11T12:23:55.415Z,1.20
2023-05-11T12:26:23.621Z,1.20
2023-05-11T12:29:07.794Z,1.00
2023-05-11T12:31:38.963Z,1.03
2023-05-11T12:34:07.218Z,1.30
2023-05-11T12:36:35.577Z,1.20
2023-05-11T12:39:03.863Z,1.13
2023-05-11T12:41:31.160Z,1.30
2023-05-11T12:43:58.753Z,1.03
2023-05-11T12:46:26.220Z,1.10
2023-05-11T12:48:53.643Z,1.10
2023-05-11T12:51:39.712Z,1.00
2023-05-11T12:54:07.114Z,1.00
2023-05-11T12:56:46.098Z,1.27
2023-05-11T12:59:25.691Z,1.80
2023-05-11T13:01:53.048Z,1.30
2023-05-11T13:04:29.237Z,1.00
2023-05-11T13:06:56.714Z,1.20
2023-05-11T13:09:27.534Z,0.90
2023-05-11T13:12:10.151Z,0.90
2023-05-11T13:14:37.953Z,0.83
2023-05-11T13:17:05.418Z,0.80
2023-05-11T13:19:34.060Z,0.80
2023-05-11T13:22:01.820Z,0.80
2023-05-11T13:24:29.246Z,0.90
2023-05-11T13:26:58.461Z,1.13
2023-05-11T13:29:26.284Z,1.10
2023-05-11T13:31:53.934Z,1.00
2023-05-11T13:34:21.337Z,0.90
2023-05-11T13:36:48.801Z,0.77
2023-05-11T13:39:16.204Z,0.90
2023-05-11T13:41:43.696Z,1.00
2023-05-11T13:44:11.000Z,1.20
2023-05-11T13:46:38.540Z,1.00
2023-05-11T13:49:06.361Z,1.50
2023-05-11T13:51:33.947Z,1.10
2023-05-11T13:54:02.554Z,1.55
2023-05-11T13:56:30.239Z,0.82
2023-05-11T13:58:59.860Z,0.90
2023-05-11T14:01:27.801Z,0.93
2023-05-11T14:03:55.716Z,1.20
2023-05-11T14:06:24.622Z,0.80
2023-05-11T14:08:52.032Z,1.00
2023-05-11T14:11:19.339Z,0.95
2023-05-11T14:13:46.570Z,1.00
2023-05-11T14:16:14.255Z,0.90
2023-05-11T14:18:42.305Z,1.37
2023-05-11T14:21:09.670Z,0.90
2023-05-11T14:23:39.845Z,0.80
2023-05-11T14:26:09.159Z,0.80
2023-05-11T14:28:36.486Z,0.80
2023-05-11T14:31:04.784Z,0.80
2023-05-11T14:33:32.785Z,0.80
2023-05-11T14:36:00.834Z,0.70
2023-05-11T14:38:29.768Z,0.83
2023-05-11T14:40:57.231Z,0.93
2023-05-11T14:43:26.561Z,1.10
2023-05-11T14:45:55.108Z,1.20
2023-05-11T14:48:23.323Z,1.10
2023-05-11T14:50:52.051Z,1.10
2023-05-11T14:53:19.576Z,1.00
2023-05-11T14:55:46.940Z,0.90
2023-05-11T14:58:14.472Z,0.90
2023-05-11T15:00:41.774Z,0.90
2023-05-11T15:03:10.735Z,1.10
2023-05-11T15:05:38.781Z,0.80
2023-05-11T15:08:15.360Z,0.90
2023-05-11T15:10:49.556Z,0.90
2023-05-11T15:13:16.869Z,0.80
2023-05-11T15:15:44.453Z,0.85
2023-05-11T15:18:15.654Z,1.08
2023-05-11T15:20:45.215Z,0.90
2023-05-11T15:23:17.714Z,1.10
2023-05-11T15:25:46.094Z,1.30
2023-05-11T15:28:13.497Z,1.00
2023-05-11T15:30:41.907Z,0.90
2023-05-11T15:33:10.223Z,1.00
2023-05-11T15:35:38.174Z,0.80
2023-05-11T15:38:06.361Z,0.85
2023-05-11T15:40:33.820Z,0.90
2023-05-11T15:43:01.183Z,0.90
2023-05-11T15:45:29.363Z,1.00
2023-05-11T15:47:58.252Z,0.90
2023-05-11T15:50:25.873Z,0.80
2023-05-11T15:52:53.262Z,0.88
2023-05-11T15:55:20.574Z,1.00
2023-05-11T15:57:47.898Z,1.00
2023-05-11T16:00:16.433Z,1.42
2023-05-11T16:02:45.987Z,0.93
2023-05-11T16:05:13.670Z,0.90
2023-05-11T16:07:41.094Z,0.80
2023-05-11T16:10:08.895Z,0.90
2023-05-11T16:12:37.130Z,4.55
2023-05-11T16:15:04.984Z,3.22
2023-05-11T16:17:32.269Z,0.80
2023-05-11T16:20:00.547Z,1.90
2023-05-11T16:22:28.810Z,0.80
2023-05-11T16:24:56.458Z,1.20
2023-05-11T16:27:24.072Z,1.52
2023-05-11T16:29:52.421Z,0.90
2023-05-11T16:32:20.355Z,0.90
2023-05-11T16:34:47.756Z,1.20
2023-05-11T16:37:15.150Z,1.73
2023-05-11T16:39:42.514Z,1.63
2023-05-11T16:42:10.805Z,1.60
2023-05-11T16:44:39.394Z,1.52
2023-05-11T16:47:06.889Z,1.80
2023-05-11T16:49:34.381Z,0.80
2023-05-11T16:52:01.608Z,1.15
2023-05-11T16:54:29.209Z,1.00
2023-05-11T16:56:57.092Z,6.50
2023-05-11T16:59:24.614Z,0.98
2023-05-11T17:01:51.929Z,0.90
2023-05-11T17:04:19.515Z,1.02
2023-05-11T17:06:46.853Z,0.85
2023-05-11T17:09:14.149Z,1.00
2023-05-11T17:11:41.555Z,0.80
2023-05-11T17:14:08.884Z,1.00
2023-05-11T17:16:36.380Z,0.80
2023-05-11T17:19:03.886Z,0.70
2023-05-11T17:21:33.818Z,1.20
2023-05-11T17:24:01.515Z,1.10
2023-05-11T17:26:43.380Z,1.13
2023-05-11T17:29:14.138Z,2.00
2023-05-11T17:31:42.323Z,2.40
2023-05-11T17:34:11.390Z,9.27
2023-05-11T17:36:38.830Z,17.88
2023-05-11T17:39:06.187Z,8.88
2023-05-11T17:41:34.394Z,2.10
2023-05-11T17:44:03.058Z,0.88
2023-05-11T17:46:30.721Z,0.80
2023-05-11T17:48:58.334Z,0.80
2023-05-11T17:51:25.764Z,0.90
2023-05-11T17:53:53.518Z,1.08
2023-05-11T17:56:20.875Z,0.90
2023-05-11T17:58:49.437Z,1.20
2023-05-11T18:01:17.366Z,1.20
2023-05-11T18:03:48.244Z,1.37
2023-05-11T18:06:16.536Z,1.80
2023-05-11T18:08:45.389Z,1.30
2023-05-11T18:11:14.065Z,1.20
2023-05-11T18:13:41.466Z,1.20
2023-05-11T18:16:09.205Z,1.20
2023-05-11T18:18:36.952Z,1.23
2023-05-11T18:21:08.078Z,1.30
2023-05-11T18:23:35.732Z,1.50
2023-05-11T18:26:03.535Z,1.00
2023-05-11T18:28:33.862Z,1.30
2023-05-11T18:31:01.420Z,1.30
2023-05-11T18:33:29.045Z,1.50
2023-05-11T18:35:56.338Z,1.60
2023-05-11T18:38:24.273Z,1.40
2023-05-11T18:40:52.881Z,2.20
2023-05-11T18:43:20.110Z,2.80
2023-05-11T18:45:47.716Z,4.17
2023-05-11T18:48:15.098Z,30.00
2023-05-11T18:50:42.463Z,10.73
2023-05-11T18:53:09.734Z,9.27
2023-05-11T18:55:51.919Z,38.03
2023-05-11T18:58:20.739Z,32.70
2023-05-11T19:00:48.781Z,23.63
2023-05-11T19:03:16.368Z,3.83
2023-05-11T19:05:44.028Z,2.30
2023-05-11T19:08:11.447Z,2.00
2023-05-11T19:10:39.847Z,2.10
2023-05-11T19:13:07.898Z,1.97
2023-05-11T19:15:35.254Z,2.13
2023-05-11T19:18:03.113Z,1.97
2023-05-11T19:23:23.046Z,1.80
2023-05-11T19:25:51.319Z,1.70
2023-05-11T19:28:19.253Z,1.40
2023-05-11T19:30:46.629Z,1.97
2023-05-11T19:33:26.157Z,1.60
2023-05-11T19:36:04.866Z,1.80
2023-05-11T19:38:32.569Z,1.40
2023-05-11T19:41:00.220Z,1.40
2023-05-11T19:43:27.477Z,1.80
2023-05-11T19:45:54.875Z,2.30
2023-05-11T19:48:22.707Z,1.63
2023-05-11T19:50:50.301Z,1.80
2023-05-11T19:53:17.772Z,2.93
2023-05-11T19:55:47.752Z,4.77
2023-05-11T19:58:15.411Z,4.30
2023-05-11T20:00:43.098Z,3.10
2023-05-11T20:03:10.892Z,3.50
2023-05-11T20:05:39.055Z,3.60
2023-05-11T20:08:07.991Z,3.40
2023-05-11T20:10:36.315Z,3.77
2023-05-11T20:13:05.633Z,2.80
2023-05-11T20:15:34.226Z,2.90
2023-05-11T20:18:03.224Z,2.70
2023-05-11T20:20:31.630Z,2.87
2023-05-11T20:22:59.675Z,2.73
2023-05-11T20:25:27.305Z,2.80
2023-05-11T20:27:55.362Z,3.90
2023-05-11T20:30:22.673Z,3.60
2023-05-11T20:35:22.308Z,5.17
2023-05-11T20:37:49.598Z,3.87
2023-05-11T20:40:17.321Z,4.03
2023-05-11T20:42:44.886Z,3.37
2023-05-11T20:45:12.163Z,3.53
2023-05-11T20:47:39.415Z,3.87
2023-05-11T20:50:08.410Z,3.60
2023-05-11T20:52:35.693Z,3.50
2023-05-11T20:55:03.722Z,4.20
2023-05-11T20:57:31.039Z,5.37
2023-05-11T21:02:28.943Z,6.63
2023-05-11T21:05:01.851Z,7.20
2023-05-11T21:07:29.805Z,7.20
2023-05-11T21:09:57.131Z,7.57
2023-05-11T21:12:24.389Z,7.47
2023-05-11T21:14:51.635Z,4.97
2023-05-11T21:17:18.987Z,4.70
2023-05-11T21:19:46.919Z,4.67
2023-05-11T21:22:14.271Z,5.27
2023-05-11T21:24:42.828Z,5.73
2023-05-11T21:27:10.115Z,5.53
2023-05-11T21:29:37.392Z,5.20
2023-05-11T21:32:05.064Z,5.50
2023-05-11T21:34:32.392Z,6.50
2023-05-11T21:37:00.029Z,5.90
2023-05-11T21:39:27.312Z,5.00
2023-05-11T21:41:54.698Z,5.10
2023-05-11T21:44:22.093Z,5.60
2023-05-11T21:46:49.551Z,7.97
2023-05-11T21:49:17.121Z,7.33
2023-05-11T21:51:44.444Z,8.40
2023-05-11T21:54:11.659Z,8.40
2023-05-11T21:56:38.935Z,8.27
2023-05-11T21:59:06.471Z,7.87
2023-05-11T22:01:33.763Z,7.17
2023-05-11T22:04:01.229Z,6.07
2023-05-11T22:06:28.738Z,6.00
2023-05-11T22:08:55.979Z,5.73
2023-05-11T22:11:24.309Z,5.17
2023-05-11T22:13:51.837Z,4.93
2023-05-11T22:16:19.262Z,5.10
2023-05-11T22:18:46.579Z,4.93
2023-05-11T22:21:13.822Z,4.80
2023-05-11T22:23:41.799Z,4.70
2023-05-11T22:26:09.102Z,4.53
2023-05-11T22:28:36.552Z,3.63
2023-05-11T22:31:03.795Z,4.10
2023-05-11T22:33:31.607Z,3.90
2023-05-11T22:35:58.997Z,3.93
2023-05-11T22:38:26.984Z,4.00
2023-05-11T22:40:54.242Z,4.00
2023-05-11T22:43:22.107Z,3.90
2023-05-11T22:45:49.532Z,4.23
2023-05-11T22:48:17.068Z,4.07
2023-05-11T22:50:47.805Z,4.70
2023-05-11T22:53:15.554Z,4.23
2023-05-11T22:55:44.311Z,4.50
2023-05-11T22:58:11.575Z,4.60
2023-05-11T23:00:38.901Z,5.03
2023-05-11T23:03:06.509Z,4.77
2023-05-11T23:05:34.436Z,5.00
2023-05-11T23:08:03.174Z,4.90
2023-05-11T23:10:30.819Z,4.73
2023-05-11T23:12:58.457Z,4.73
2023-05-11T23:15:26.287Z,4.83
2023-05-11T23:17:53.619Z,4.27
2023-05-11T23:20:21.206Z,4.40
2023-05-11T23:22:49.457Z,6.50
2023-05-11T23:25:17.983Z,6.27
2023-05-11T23:27:46.006Z,9.23
2023-05-11T23:30:13.327Z,5.37
2023-05-11T23:32:40.619Z,4.57
2023-05-11T23:35:08.191Z,4.67
2023-05-11T23:37:36.694Z,4.83
2023-05-11T23:40:04.529Z,4.77
2023-05-11T23:42:32.243Z,4.33
2023-05-11T23:45:04.322Z,4.87
2023-05-11T23:47:32.359Z,4.00
2023-05-11T23:50:00.348Z,7.60
2023-05-11T23:52:28.449Z,9.53
2023-05-11T23:54:56.439Z,7.07
2023-05-11T23:57:24.261Z,5.40
2023-05-11T23:59:51.827Z,4.73
